sensor_id;sensor_type;location;lat;lon;timestamp;temperature;humidity
45537;DHT22;31262;51.978;5.924;2022-11-21T00:01:25;10.90;58.80
45537;DHT22;31262;51.978;5.924;2022-11-21T00:03:50;11.10;58.60
45537;DHT22;31262;51.978;5.924;2022-11-21T00:06:16;11.10;58.50
45537;DHT22;31262;51.978;5.924;2022-11-21T00:08:42;11.20;58.40
45537;DHT22;31262;51.978;5.924;2022-11-21T00:11:08;11.20;58.40
45537;DHT22;31262;51.978;5.924;2022-11-21T00:13:33;11.10;58.50
45537;DHT22;31262;51.978;5.924;2022-11-21T00:16:05;11.10;58.70
45537;DHT22;31262;51.978;5.924;2022-11-21T00:18:32;11.00;58.70
45537;DHT22;31262;51.978;5.924;2022-11-21T00:21:02;11.00;59.00
45537;DHT22;31262;51.978;5.924;2022-11-21T00:23:27;10.90;59.00
45537;DHT22;31262;51.978;5.924;2022-11-21T00:25:53;10.80;59.20
45537;DHT22;31262;51.978;5.924;2022-11-21T00:28:18;10.80;59.30
45537;DHT22;31262;51.978;5.924;2022-11-21T00:30:44;10.60;59.30
45537;DHT22;31262;51.978;5.924;2022-11-21T00:33:09;10.80;59.30
45537;DHT22;31262;51.978;5.924;2022-11-21T00:35:35;10.80;59.20
45537;DHT22;31262;51.978;5.924;2022-11-21T00:38:00;10.80;59.20
45537;DHT22;31262;51.978;5.924;2022-11-21T00:40:26;10.80;59.10
45537;DHT22;31262;51.978;5.924;2022-11-21T00:42:51;10.80;59.20
45537;DHT22;31262;51.978;5.924;2022-11-21T00:45:17;10.70;59.20
45537;DHT22;31262;51.978;5.924;2022-11-21T00:47:42;10.70;59.30
45537;DHT22;31262;51.978;5.924;2022-11-21T00:50:08;10.60;59.40
45537;DHT22;31262;51.978;5.924;2022-11-21T00:52:34;10.60;59.50
45537;DHT22;31262;51.978;5.924;2022-11-21T00:54:59;10.60;59.50
45537;DHT22;31262;51.978;5.924;2022-11-21T00:57:25;10.60;59.60
45537;DHT22;31262;51.978;5.924;2022-11-21T00:59:50;10.50;59.70
45537;DHT22;31262;51.978;5.924;2022-11-21T01:02:16;10.50;59.70
45537;DHT22;31262;51.978;5.924;2022-11-21T01:04:41;10.50;59.70
45537;DHT22;31262;51.978;5.924;2022-11-21T01:07:06;10.50;59.70
45537;DHT22;31262;51.978;5.924;2022-11-21T01:09:32;10.50;59.60
45537;DHT22;31262;51.978;5.924;2022-11-21T01:11:57;10.50;59.60
45537;DHT22;31262;51.978;5.924;2022-11-21T01:14:23;10.40;59.70
45537;DHT22;31262;51.978;5.924;2022-11-21T01:16:49;10.50;59.80
45537;DHT22;31262;51.978;5.924;2022-11-21T01:19:14;10.40;59.80
45537;DHT22;31262;51.978;5.924;2022-11-21T01:21:40;10.30;59.80
45537;DHT22;31262;51.978;5.924;2022-11-21T01:24:05;10.30;59.80
45537;DHT22;31262;51.978;5.924;2022-11-21T01:26:31;10.40;59.90
45537;DHT22;31262;51.978;5.924;2022-11-21T01:29:02;10.30;60.00
45537;DHT22;31262;51.978;5.924;2022-11-21T01:31:29;10.50;60.10
45537;DHT22;31262;51.978;5.924;2022-11-21T01:33:58;10.40;59.80
45537;DHT22;31262;51.978;5.924;2022-11-21T01:36:25;10.50;59.80
45537;DHT22;31262;51.978;5.924;2022-11-21T01:38:51;10.50;59.50
45537;DHT22;31262;51.978;5.924;2022-11-21T01:41:18;10.50;59.40
45537;DHT22;31262;51.978;5.924;2022-11-21T01:43:44;10.50;59.50
45537;DHT22;31262;51.978;5.924;2022-11-21T01:46:29;10.40;59.60
45537;DHT22;31262;51.978;5.924;2022-11-21T01:48:57;10.30;59.80
45537;DHT22;31262;51.978;5.924;2022-11-21T01:51:25;10.40;59.90
45537;DHT22;31262;51.978;5.924;2022-11-21T01:53:57;10.40;59.70
45537;DHT22;31262;51.978;5.924;2022-11-21T01:56:23;10.40;59.70
45537;DHT22;31262;51.978;5.924;2022-11-21T01:58:50;10.50;59.70
45537;DHT22;31262;51.978;5.924;2022-11-21T02:01:16;10.50;59.60
45537;DHT22;31262;51.978;5.924;2022-11-21T02:03:42;10.40;59.60
45537;DHT22;31262;51.978;5.924;2022-11-21T02:06:09;10.40;59.70
45537;DHT22;31262;51.978;5.924;2022-11-21T02:08:35;10.30;59.80
45537;DHT22;31262;51.978;5.924;2022-11-21T02:11:04;10.20;59.80
45537;DHT22;31262;51.978;5.924;2022-11-21T02:13:32;10.20;59.90
45537;DHT22;31262;51.978;5.924;2022-11-21T02:15:58;10.10;59.90
45537;DHT22;31262;51.978;5.924;2022-11-21T02:18:23;10.10;60.00
45537;DHT22;31262;51.978;5.924;2022-11-21T02:20:52;10.00;60.10
45537;DHT22;31262;51.978;5.924;2022-11-21T02:25:43;9.90;60.30
45537;DHT22;31262;51.978;5.924;2022-11-21T02:28:15;9.90;60.30
45537;DHT22;31262;51.978;5.924;2022-11-21T02:30:43;9.90;60.40
45537;DHT22;31262;51.978;5.924;2022-11-21T02:33:09;9.80;60.30
45537;DHT22;31262;51.978;5.924;2022-11-21T02:35:35;9.90;60.50
45537;DHT22;31262;51.978;5.924;2022-11-21T02:38:01;9.80;60.60
45537;DHT22;31262;51.978;5.924;2022-11-21T02:40:30;9.80;60.60
45537;DHT22;31262;51.978;5.924;2022-11-21T02:45:27;9.80;60.60
45537;DHT22;31262;51.978;5.924;2022-11-21T02:47:54;9.70;60.50
45537;DHT22;31262;51.978;5.924;2022-11-21T02:50:33;9.80;60.60
45537;DHT22;31262;51.978;5.924;2022-11-21T02:52:59;9.80;60.70
45537;DHT22;31262;51.978;5.924;2022-11-21T02:55:25;9.70;60.60
45537;DHT22;31262;51.978;5.924;2022-11-21T02:57:51;9.70;60.70
45537;DHT22;31262;51.978;5.924;2022-11-21T03:00:17;9.70;60.70
45537;DHT22;31262;51.978;5.924;2022-11-21T03:02:42;9.70;60.70
45537;DHT22;31262;51.978;5.924;2022-11-21T03:05:08;9.70;60.80
45537;DHT22;31262;51.978;5.924;2022-11-21T03:07:34;9.70;60.80
45537;DHT22;31262;51.978;5.924;2022-11-21T03:10:00;9.70;60.80
45537;DHT22;31262;51.978;5.924;2022-11-21T03:12:25;9.70;60.80
45537;DHT22;31262;51.978;5.924;2022-11-21T03:14:51;9.80;60.90
45537;DHT22;31262;51.978;5.924;2022-11-21T03:17:16;9.70;60.90
45537;DHT22;31262;51.978;5.924;2022-11-21T03:19:42;9.80;60.70
45537;DHT22;31262;51.978;5.924;2022-11-21T03:22:07;9.80;60.70
45537;DHT22;31262;51.978;5.924;2022-11-21T03:24:33;9.80;60.60
45537;DHT22;31262;51.978;5.924;2022-11-21T03:26:58;9.80;60.60
45537;DHT22;31262;51.978;5.924;2022-11-21T03:29:24;9.80;60.60
45537;DHT22;31262;51.978;5.924;2022-11-21T03:31:49;9.80;60.70
45537;DHT22;31262;51.978;5.924;2022-11-21T03:34:15;9.70;60.80
45537;DHT22;31262;51.978;5.924;2022-11-21T03:36:40;9.70;60.80
45537;DHT22;31262;51.978;5.924;2022-11-21T03:39:06;9.80;61.00
45537;DHT22;31262;51.978;5.924;2022-11-21T03:41:32;9.60;60.90
45537;DHT22;31262;51.978;5.924;2022-11-21T03:44:04;9.70;61.00
45537;DHT22;31262;51.978;5.924;2022-11-21T03:46:30;9.60;61.00
45537;DHT22;31262;51.978;5.924;2022-11-21T03:48:56;9.60;61.00
45537;DHT22;31262;51.978;5.924;2022-11-21T03:51:22;9.60;61.00
45537;DHT22;31262;51.978;5.924;2022-11-21T03:53:47;9.70;61.10
45537;DHT22;31262;51.978;5.924;2022-11-21T03:56:13;9.90;61.10
45537;DHT22;31262;51.978;5.924;2022-11-21T03:58:39;10.00;60.70
45537;DHT22;31262;51.978;5.924;2022-11-21T04:01:05;9.90;60.60
45537;DHT22;31262;51.978;5.924;2022-11-21T04:03:30;9.90;60.70
45537;DHT22;31262;51.978;5.924;2022-11-21T04:05:56;9.80;60.70
45537;DHT22;31262;51.978;5.924;2022-11-21T04:08:21;9.80;60.70
45537;DHT22;31262;51.978;5.924;2022-11-21T04:10:50;9.70;60.80
45537;DHT22;31262;51.978;5.924;2022-11-21T04:13:16;9.60;61.10
45537;DHT22;31262;51.978;5.924;2022-11-21T04:15:42;9.40;61.20
45537;DHT22;31262;51.978;5.924;2022-11-21T04:18:08;9.30;61.30
45537;DHT22;31262;51.978;5.924;2022-11-21T04:20:34;9.40;61.50
45537;DHT22;31262;51.978;5.924;2022-11-21T04:22:59;9.30;61.60
45537;DHT22;31262;51.978;5.924;2022-11-21T04:25:25;9.30;61.70
45537;DHT22;31262;51.978;5.924;2022-11-21T04:27:50;9.30;61.70
45537;DHT22;31262;51.978;5.924;2022-11-21T04:30:16;9.30;61.70
45537;DHT22;31262;51.978;5.924;2022-11-21T04:32:41;9.30;61.50
45537;DHT22;31262;51.978;5.924;2022-11-21T04:35:08;9.30;61.50
45537;DHT22;31262;51.978;5.924;2022-11-21T04:37:33;9.40;61.60
45537;DHT22;31262;51.978;5.924;2022-11-21T04:39:59;9.30;61.70
45537;DHT22;31262;51.978;5.924;2022-11-21T04:42:24;9.30;61.70
45537;DHT22;31262;51.978;5.924;2022-11-21T04:44:50;9.20;61.70
45537;DHT22;31262;51.978;5.924;2022-11-21T04:47:15;9.10;61.70
45537;DHT22;31262;51.978;5.924;2022-11-21T04:49:41;9.20;61.80
45537;DHT22;31262;51.978;5.924;2022-11-21T04:52:06;9.30;61.90
45537;DHT22;31262;51.978;5.924;2022-11-21T04:54:32;9.20;61.80
45537;DHT22;31262;51.978;5.924;2022-11-21T04:56:57;9.20;61.80
45537;DHT22;31262;51.978;5.924;2022-11-21T04:59:23;9.30;61.90
45537;DHT22;31262;51.978;5.924;2022-11-21T05:01:48;9.20;61.80
45537;DHT22;31262;51.978;5.924;2022-11-21T05:04:13;9.20;61.80
45537;DHT22;31262;51.978;5.924;2022-11-21T05:06:39;9.10;61.80
45537;DHT22;31262;51.978;5.924;2022-11-21T05:09:04;9.30;61.90
45537;DHT22;31262;51.978;5.924;2022-11-21T05:11:30;9.30;61.90
45537;DHT22;31262;51.978;5.924;2022-11-21T05:14:14;9.40;61.80
45537;DHT22;31262;51.978;5.924;2022-11-21T05:16:41;9.40;61.80
45537;DHT22;31262;51.978;5.924;2022-11-21T05:19:07;9.30;61.80
45537;DHT22;31262;51.978;5.924;2022-11-21T05:21:33;9.30;61.90
45537;DHT22;31262;51.978;5.924;2022-11-21T05:23:58;9.30;61.80
45537;DHT22;31262;51.978;5.924;2022-11-21T05:26:24;9.40;61.90
45537;DHT22;31262;51.978;5.924;2022-11-21T05:28:49;9.40;61.70
45537;DHT22;31262;51.978;5.924;2022-11-21T05:31:15;9.60;61.90
45537;DHT22;31262;51.978;5.924;2022-11-21T05:33:40;9.60;61.80
45537;DHT22;31262;51.978;5.924;2022-11-21T05:36:06;9.70;61.60
45537;DHT22;31262;51.978;5.924;2022-11-21T05:38:31;9.80;61.40
45537;DHT22;31262;51.978;5.924;2022-11-21T05:40:56;9.80;61.20
45537;DHT22;31262;51.978;5.924;2022-11-21T05:43:22;9.80;61.40
45537;DHT22;31262;51.978;5.924;2022-11-21T05:46:06;9.80;61.20
45537;DHT22;31262;51.978;5.924;2022-11-21T05:48:31;9.70;61.40
45537;DHT22;31262;51.978;5.924;2022-11-21T05:50:58;9.70;61.80
45537;DHT22;31262;51.978;5.924;2022-11-21T05:53:24;9.70;61.80
45537;DHT22;31262;51.978;5.924;2022-11-21T05:55:49;9.80;61.60
45537;DHT22;31262;51.978;5.924;2022-11-21T05:58:15;9.80;61.50
45537;DHT22;31262;51.978;5.924;2022-11-21T06:00:40;9.60;61.70
45537;DHT22;31262;51.978;5.924;2022-11-21T06:03:07;9.50;61.90
45537;DHT22;31262;51.978;5.924;2022-11-21T06:05:51;9.30;62.20
45537;DHT22;31262;51.978;5.924;2022-11-21T06:08:16;9.20;62.60
45537;DHT22;31262;51.978;5.924;2022-11-21T06:10:42;9.00;63.00
45537;DHT22;31262;51.978;5.924;2022-11-21T06:13:07;8.90;63.40
45537;DHT22;31262;51.978;5.924;2022-11-21T06:18:14;8.50;63.80
45537;DHT22;31262;51.978;5.924;2022-11-21T06:20:39;8.70;64.30
45537;DHT22;31262;51.978;5.924;2022-11-21T06:23:05;8.50;64.90
45537;DHT22;31262;51.978;5.924;2022-11-21T06:25:30;8.30;64.90
45537;DHT22;31262;51.978;5.924;2022-11-21T06:27:58;8.30;65.00
45537;DHT22;31262;51.978;5.924;2022-11-21T06:30:23;8.40;65.70
45537;DHT22;31262;51.978;5.924;2022-11-21T06:32:48;8.30;65.30
45537;DHT22;31262;51.978;5.924;2022-11-21T06:35:14;8.20;65.60
45537;DHT22;31262;51.978;5.924;2022-11-21T06:37:39;8.10;65.80
45537;DHT22;31262;51.978;5.924;2022-11-21T06:40:05;8.00;66.30
45537;DHT22;31262;51.978;5.924;2022-11-21T06:42:31;8.00;66.90
45537;DHT22;31262;51.978;5.924;2022-11-21T06:44:56;7.90;67.00
45537;DHT22;31262;51.978;5.924;2022-11-21T06:47:22;7.80;67.50
45537;DHT22;31262;51.978;5.924;2022-11-21T06:49:47;7.80;68.10
45537;DHT22;31262;51.978;5.924;2022-11-21T06:52:13;7.80;68.40
45537;DHT22;31262;51.978;5.924;2022-11-21T06:54:38;7.60;68.70
45537;DHT22;31262;51.978;5.924;2022-11-21T06:57:03;7.60;68.80
45537;DHT22;31262;51.978;5.924;2022-11-21T06:59:29;7.70;68.70
45537;DHT22;31262;51.978;5.924;2022-11-21T07:01:54;7.70;68.50
45537;DHT22;31262;51.978;5.924;2022-11-21T07:04:20;7.70;68.30
45537;DHT22;31262;51.978;5.924;2022-11-21T07:06:45;7.80;68.10
45537;DHT22;31262;51.978;5.924;2022-11-21T07:09:11;7.80;68.00
45537;DHT22;31262;51.978;5.924;2022-11-21T07:11:36;7.80;67.90
45537;DHT22;31262;51.978;5.924;2022-11-21T07:14:02;7.90;68.10
45537;DHT22;31262;51.978;5.924;2022-11-21T07:16:27;7.80;68.40
45537;DHT22;31262;51.978;5.924;2022-11-21T07:18:56;7.80;68.50
45537;DHT22;31262;51.978;5.924;2022-11-21T07:21:21;8.00;68.50
45537;DHT22;31262;51.978;5.924;2022-11-21T07:23:47;7.90;68.30
45537;DHT22;31262;51.978;5.924;2022-11-21T07:26:13;7.90;68.10
45537;DHT22;31262;51.978;5.924;2022-11-21T07:28:38;8.10;67.90
45537;DHT22;31262;51.978;5.924;2022-11-21T07:31:04;8.00;67.70
45537;DHT22;31262;51.978;5.924;2022-11-21T07:33:29;8.10;67.70
45537;DHT22;31262;51.978;5.924;2022-11-21T07:35:55;8.10;67.50
45537;DHT22;31262;51.978;5.924;2022-11-21T07:38:24;8.20;67.40
45537;DHT22;31262;51.978;5.924;2022-11-21T07:40:50;8.20;67.40
45537;DHT22;31262;51.978;5.924;2022-11-21T07:43:16;8.20;67.40
45537;DHT22;31262;51.978;5.924;2022-11-21T07:45:41;8.20;67.30
45537;DHT22;31262;51.978;5.924;2022-11-21T07:48:08;8.20;67.30
45537;DHT22;31262;51.978;5.924;2022-11-21T07:50:33;8.20;67.20
45537;DHT22;31262;51.978;5.924;2022-11-21T07:53:00;8.20;67.20
45537;DHT22;31262;51.978;5.924;2022-11-21T07:55:25;8.30;67.20
45537;DHT22;31262;51.978;5.924;2022-11-21T07:57:57;8.20;67.10
45537;DHT22;31262;51.978;5.924;2022-11-21T08:00:23;8.30;67.00
45537;DHT22;31262;51.978;5.924;2022-11-21T08:02:49;8.30;67.00
45537;DHT22;31262;51.978;5.924;2022-11-21T08:05:14;8.30;66.90
45537;DHT22;31262;51.978;5.924;2022-11-21T08:07:40;8.30;67.00
45537;DHT22;31262;51.978;5.924;2022-11-21T08:10:05;8.30;67.00
45537;DHT22;31262;51.978;5.924;2022-11-21T08:12:31;8.30;67.10
45537;DHT22;31262;51.978;5.924;2022-11-21T08:14:57;8.40;67.10
45537;DHT22;31262;51.978;5.924;2022-11-21T08:17:24;8.30;67.00
45537;DHT22;31262;51.978;5.924;2022-11-21T08:19:50;8.30;66.90
45537;DHT22;31262;51.978;5.924;2022-11-21T08:22:15;8.40;67.00
45537;DHT22;31262;51.978;5.924;2022-11-21T08:24:41;8.40;67.00
45537;DHT22;31262;51.978;5.924;2022-11-21T08:27:06;8.40;67.00
45537;DHT22;31262;51.978;5.924;2022-11-21T08:29:32;8.40;66.90
45537;DHT22;31262;51.978;5.924;2022-11-21T08:31:57;8.40;66.80
45537;DHT22;31262;51.978;5.924;2022-11-21T08:34:23;8.50;66.80
45537;DHT22;31262;51.978;5.924;2022-11-21T08:36:48;8.40;66.70
45537;DHT22;31262;51.978;5.924;2022-11-21T08:39:14;8.50;66.70
45537;DHT22;31262;51.978;5.924;2022-11-21T08:41:41;8.60;66.70
45537;DHT22;31262;51.978;5.924;2022-11-21T08:44:25;8.60;66.70
45537;DHT22;31262;51.978;5.924;2022-11-21T08:46:50;8.50;66.60
45537;DHT22;31262;51.978;5.924;2022-11-21T08:49:15;8.50;66.70
45537;DHT22;31262;51.978;5.924;2022-11-21T08:51:41;8.50;66.70
45537;DHT22;31262;51.978;5.924;2022-11-21T08:54:07;8.50;66.70
45537;DHT22;31262;51.978;5.924;2022-11-21T08:56:33;8.60;66.70
45537;DHT22;31262;51.978;5.924;2022-11-21T08:58:59;8.40;66.50
45537;DHT22;31262;51.978;5.924;2022-11-21T09:01:24;8.50;66.60
45537;DHT22;31262;51.978;5.924;2022-11-21T09:03:50;8.60;66.60
45537;DHT22;31262;51.978;5.924;2022-11-21T09:06:15;8.60;66.60
45537;DHT22;31262;51.978;5.924;2022-11-21T09:08:40;8.60;66.60
45537;DHT22;31262;51.978;5.924;2022-11-21T09:11:07;8.50;66.60
45537;DHT22;31262;51.978;5.924;2022-11-21T09:13:33;8.50;66.70
45537;DHT22;31262;51.978;5.924;2022-11-21T09:15:59;8.40;66.60
45537;DHT22;31262;51.978;5.924;2022-11-21T09:18:43;8.50;66.70
45537;DHT22;31262;51.978;5.924;2022-11-21T09:21:15;8.60;66.60
45537;DHT22;31262;51.978;5.924;2022-11-21T09:23:41;8.50;66.60
45537;DHT22;31262;51.978;5.924;2022-11-21T09:26:07;8.60;66.70
45537;DHT22;31262;51.978;5.924;2022-11-21T09:28:32;8.50;66.70
45537;DHT22;31262;51.978;5.924;2022-11-21T09:31:01;8.60;66.70
45537;DHT22;31262;51.978;5.924;2022-11-21T09:33:26;8.50;66.70
45537;DHT22;31262;51.978;5.924;2022-11-21T09:35:52;8.60;66.70
45537;DHT22;31262;51.978;5.924;2022-11-21T09:38:17;8.60;66.70
45537;DHT22;31262;51.978;5.924;2022-11-21T09:40:43;8.60;66.60
45537;DHT22;31262;51.978;5.924;2022-11-21T09:45:46;8.60;66.70
45537;DHT22;31262;51.978;5.924;2022-11-21T09:48:13;8.60;66.70
45537;DHT22;31262;51.978;5.924;2022-11-21T09:50:41;8.70;66.70
45537;DHT22;31262;51.978;5.924;2022-11-21T09:53:10;8.70;66.80
45537;DHT22;31262;51.978;5.924;2022-11-21T09:55:43;8.70;66.80
45537;DHT22;31262;51.978;5.924;2022-11-21T10:00:44;8.70;67.00
45537;DHT22;31262;51.978;5.924;2022-11-21T10:03:10;8.70;67.00
45537;DHT22;31262;51.978;5.924;2022-11-21T10:05:40;8.80;67.10
45537;DHT22;31262;51.978;5.924;2022-11-21T10:08:14;8.80;67.10
45537;DHT22;31262;51.978;5.924;2022-11-21T10:23:33;8.90;67.00
45537;DHT22;31262;51.978;5.924;2022-11-21T10:31:21;9.00;67.10
45537;DHT22;31262;51.978;5.924;2022-11-21T10:33:48;9.00;67.50
45537;DHT22;31262;51.978;5.924;2022-11-21T10:38:44;9.00;67.80
45537;DHT22;31262;51.978;5.924;2022-11-21T10:46:39;8.90;68.40
45537;DHT22;31262;51.978;5.924;2022-11-21T10:49:17;8.90;68.40
45537;DHT22;31262;51.978;5.924;2022-11-21T10:51:44;8.90;68.40
45537;DHT22;31262;51.978;5.924;2022-11-21T10:54:12;8.90;68.60
45537;DHT22;31262;51.978;5.924;2022-11-21T10:59:30;9.00;68.60
45537;DHT22;31262;51.978;5.924;2022-11-21T11:02:00;9.00;68.50
45537;DHT22;31262;51.978;5.924;2022-11-21T11:04:27;9.00;68.70
45537;DHT22;31262;51.978;5.924;2022-11-21T11:06:53;9.00;68.60
45537;DHT22;31262;51.978;5.924;2022-11-21T11:09:26;9.00;68.50
45537;DHT22;31262;51.978;5.924;2022-11-21T11:11:53;9.10;68.50
45537;DHT22;31262;51.978;5.924;2022-11-21T11:14:29;9.20;68.70
45537;DHT22;31262;51.978;5.924;2022-11-21T11:16:56;9.10;68.60
45537;DHT22;31262;51.978;5.924;2022-11-21T11:19:24;9.10;68.60
45537;DHT22;31262;51.978;5.924;2022-11-21T11:21:50;9.00;68.50
45537;DHT22;31262;51.978;5.924;2022-11-21T11:29:20;9.20;68.50
45537;DHT22;31262;51.978;5.924;2022-11-21T11:31:56;9.30;68.40
45537;DHT22;31262;51.978;5.924;2022-11-21T11:34:27;9.30;68.30
45537;DHT22;31262;51.978;5.924;2022-11-21T11:39:36;9.40;68.30
45537;DHT22;31262;51.978;5.924;2022-11-21T11:47:57;9.40;68.50
45537;DHT22;31262;51.978;5.924;2022-11-21T11:50:29;9.50;68.70
45537;DHT22;31262;51.978;5.924;2022-11-21T11:53:00;9.50;68.60
45537;DHT22;31262;51.978;5.924;2022-11-21T11:57:59;9.60;68.90
45537;DHT22;31262;51.978;5.924;2022-11-21T12:05:31;9.60;68.70
45537;DHT22;31262;51.978;5.924;2022-11-21T12:08:04;9.70;68.60
45537;DHT22;31262;51.978;5.924;2022-11-21T12:10:41;9.80;68.50
45537;DHT22;31262;51.978;5.924;2022-11-21T12:13:29;9.70;68.30
45537;DHT22;31262;51.978;5.924;2022-11-21T12:15:56;9.80;68.30
45537;DHT22;31262;51.978;5.924;2022-11-21T12:18:35;9.80;68.30
45537;DHT22;31262;51.978;5.924;2022-11-21T12:23:45;9.80;68.30
45537;DHT22;31262;51.978;5.924;2022-11-21T12:42:08;10.10;68.20
45537;DHT22;31262;51.978;5.924;2022-11-21T12:47:36;10.10;68.50
45537;DHT22;31262;51.978;5.924;2022-11-21T12:50:31;10.10;68.70
45537;DHT22;31262;51.978;5.924;2022-11-21T12:53:37;10.20;69.00
45537;DHT22;31262;51.978;5.924;2022-11-21T12:56:30;10.20;68.80
45537;DHT22;31262;51.978;5.924;2022-11-21T12:58:57;10.30;68.80
45537;DHT22;31262;51.978;5.924;2022-11-21T13:02:00;10.20;69.30
45537;DHT22;31262;51.978;5.924;2022-11-21T13:04:17;10.20;69.50
45537;DHT22;31262;51.978;5.924;2022-11-21T13:06:44;10.30;69.70
45537;DHT22;31262;51.978;5.924;2022-11-21T13:09:17;10.30;69.80
45537;DHT22;31262;51.978;5.924;2022-11-21T13:19:41;10.20;71.40
45537;DHT22;31262;51.978;5.924;2022-11-21T13:22:39;10.20;72.50
45537;DHT22;31262;51.978;5.924;2022-11-21T13:27:29;10.20;72.70
45537;DHT22;31262;51.978;5.924;2022-11-21T13:32:37;10.30;72.00
45537;DHT22;31262;51.978;5.924;2022-11-21T13:45:37;10.40;71.90
45537;DHT22;31262;51.978;5.924;2022-11-21T13:48:07;10.40;71.70
45537;DHT22;31262;51.978;5.924;2022-11-21T13:51:03;10.50;71.90
45537;DHT22;31262;51.978;5.924;2022-11-21T13:53:49;10.50;71.80
45537;DHT22;31262;51.978;5.924;2022-11-21T13:59:09;10.50;72.70
45537;DHT22;31262;51.978;5.924;2022-11-21T14:01:42;10.50;72.70
45537;DHT22;31262;51.978;5.924;2022-11-21T14:06:42;10.50;72.60
45537;DHT22;31262;51.978;5.924;2022-11-21T14:12:26;10.60;72.20
45537;DHT22;31262;51.978;5.924;2022-11-21T14:15:06;10.70;72.00
45537;DHT22;31262;51.978;5.924;2022-11-21T14:17:45;10.80;71.80
45537;DHT22;31262;51.978;5.924;2022-11-21T14:23:03;10.90;71.20
45537;DHT22;31262;51.978;5.924;2022-11-21T14:25:33;11.00;70.90
45537;DHT22;31262;51.978;5.924;2022-11-21T14:27:59;11.00;70.80
45537;DHT22;31262;51.978;5.924;2022-11-21T14:30:27;11.00;70.60
45537;DHT22;31262;51.978;5.924;2022-11-21T14:32:53;11.10;70.50
45537;DHT22;31262;51.978;5.924;2022-11-21T14:35:19;11.10;70.30
45537;DHT22;31262;51.978;5.924;2022-11-21T14:37:45;11.10;70.20
45537;DHT22;31262;51.978;5.924;2022-11-21T14:40:11;11.10;70.00
45537;DHT22;31262;51.978;5.924;2022-11-21T14:42:38;11.10;69.90
45537;DHT22;31262;51.978;5.924;2022-11-21T14:45:22;11.20;69.80
45537;DHT22;31262;51.978;5.924;2022-11-21T14:47:51;11.20;69.70
45537;DHT22;31262;51.978;5.924;2022-11-21T14:50:21;11.10;69.60
45537;DHT22;31262;51.978;5.924;2022-11-21T14:52:46;11.20;69.50
45537;DHT22;31262;51.978;5.924;2022-11-21T14:55:20;11.20;69.50
45537;DHT22;31262;51.978;5.924;2022-11-21T14:57:46;11.20;69.40
45537;DHT22;31262;51.978;5.924;2022-11-21T15:00:13;11.20;69.40
45537;DHT22;31262;51.978;5.924;2022-11-21T15:02:39;11.20;69.30
45537;DHT22;31262;51.978;5.924;2022-11-21T15:05:06;11.20;69.20
45537;DHT22;31262;51.978;5.924;2022-11-21T15:07:38;11.10;69.10
45537;DHT22;31262;51.978;5.924;2022-11-21T15:10:04;11.10;69.50
45537;DHT22;31262;51.978;5.924;2022-11-21T15:12:51;11.00;69.30
45537;DHT22;31262;51.978;5.924;2022-11-21T15:17:55;11.00;69.20
45537;DHT22;31262;51.978;5.924;2022-11-21T15:20:22;10.90;69.30
45537;DHT22;31262;51.978;5.924;2022-11-21T15:22:48;10.90;69.40
45537;DHT22;31262;51.978;5.924;2022-11-21T15:25:14;10.80;69.40
45537;DHT22;31262;51.978;5.924;2022-11-21T15:27:42;10.80;69.50
45537;DHT22;31262;51.978;5.924;2022-11-21T15:35:39;10.80;69.60
45537;DHT22;31262;51.978;5.924;2022-11-21T15:38:15;10.70;69.40
45537;DHT22;31262;51.978;5.924;2022-11-21T15:41:01;10.70;69.50
45537;DHT22;31262;51.978;5.924;2022-11-21T15:46:02;10.70;69.50
45537;DHT22;31262;51.978;5.924;2022-11-21T15:48:28;10.80;69.50
45537;DHT22;31262;51.978;5.924;2022-11-21T15:50:54;10.70;69.40
45537;DHT22;31262;51.978;5.924;2022-11-21T15:53:20;10.70;69.40
45537;DHT22;31262;51.978;5.924;2022-11-21T15:55:45;10.70;69.40
45537;DHT22;31262;51.978;5.924;2022-11-21T15:58:11;10.70;69.30
45537;DHT22;31262;51.978;5.924;2022-11-21T16:00:36;10.80;69.40
45537;DHT22;31262;51.978;5.924;2022-11-21T16:03:01;10.90;69.20
45537;DHT22;31262;51.978;5.924;2022-11-21T16:05:27;10.90;69.00
45537;DHT22;31262;51.978;5.924;2022-11-21T16:07:52;11.20;68.90
45537;DHT22;31262;51.978;5.924;2022-11-21T16:10:18;11.40;68.70
45537;DHT22;31262;51.978;5.924;2022-11-21T16:12:43;11.60;68.40
45537;DHT22;31262;51.978;5.924;2022-11-21T16:15:09;11.90;68.10
45537;DHT22;31262;51.978;5.924;2022-11-21T16:17:34;12.20;67.60
45537;DHT22;31262;51.978;5.924;2022-11-21T16:20:00;12.40;67.00
45537;DHT22;31262;51.978;5.924;2022-11-21T16:22:25;12.80;66.50
45537;DHT22;31262;51.978;5.924;2022-11-21T16:24:51;13.00;66.10
45537;DHT22;31262;51.978;5.924;2022-11-21T16:27:16;13.30;65.80
45537;DHT22;31262;51.978;5.924;2022-11-21T16:29:43;13.40;65.50
45537;DHT22;31262;51.978;5.924;2022-11-21T16:32:08;13.50;65.40
45537;DHT22;31262;51.978;5.924;2022-11-21T16:34:34;13.60;65.20
45537;DHT22;31262;51.978;5.924;2022-11-21T16:36:59;13.70;65.00
45537;DHT22;31262;51.978;5.924;2022-11-21T16:39:25;13.80;65.00
45537;DHT22;31262;51.978;5.924;2022-11-21T16:41:51;13.80;64.90
45537;DHT22;31262;51.978;5.924;2022-11-21T16:44:16;13.90;64.60
45537;DHT22;31262;51.978;5.924;2022-11-21T16:46:42;14.00;64.50
45537;DHT22;31262;51.978;5.924;2022-11-21T16:49:08;14.10;64.30
45537;DHT22;31262;51.978;5.924;2022-11-21T16:51:34;14.10;64.30
45537;DHT22;31262;51.978;5.924;2022-11-21T16:53:59;14.00;64.40
45537;DHT22;31262;51.978;5.924;2022-11-21T16:56:25;13.90;64.50
45537;DHT22;31262;51.978;5.924;2022-11-21T16:58:51;13.90;64.60
45537;DHT22;31262;51.978;5.924;2022-11-21T17:01:17;13.80;64.60
45537;DHT22;31262;51.978;5.924;2022-11-21T17:03:44;13.80;64.70
45537;DHT22;31262;51.978;5.924;2022-11-21T17:06:11;13.70;64.90
45537;DHT22;31262;51.978;5.924;2022-11-21T17:08:37;13.70;64.90
45537;DHT22;31262;51.978;5.924;2022-11-21T17:13:41;13.80;64.40
45537;DHT22;31262;51.978;5.924;2022-11-21T17:16:07;13.80;64.30
45537;DHT22;31262;51.978;5.924;2022-11-21T17:18:32;13.80;64.40
45537;DHT22;31262;51.978;5.924;2022-11-21T17:20:58;13.80;64.40
45537;DHT22;31262;51.978;5.924;2022-11-21T17:23:29;14.00;64.10
45537;DHT22;31262;51.978;5.924;2022-11-21T17:25:54;14.30;63.50
45537;DHT22;31262;51.978;5.924;2022-11-21T17:28:24;14.60;63.00
45537;DHT22;31262;51.978;5.924;2022-11-21T17:30:51;14.80;62.50
45537;DHT22;31262;51.978;5.924;2022-11-21T17:33:16;15.00;62.00
45537;DHT22;31262;51.978;5.924;2022-11-21T17:35:42;15.30;61.70
45537;DHT22;31262;51.978;5.924;2022-11-21T17:38:08;15.40;61.50
45537;DHT22;31262;51.978;5.924;2022-11-21T17:40:33;15.50;61.40
45537;DHT22;31262;51.978;5.924;2022-11-21T17:42:59;15.60;61.30
45537;DHT22;31262;51.978;5.924;2022-11-21T17:45:24;15.80;61.10
45537;DHT22;31262;51.978;5.924;2022-11-21T17:47:50;16.00;60.80
45537;DHT22;31262;51.978;5.924;2022-11-21T17:50:16;16.30;60.60
45537;DHT22;31262;51.978;5.924;2022-11-21T17:52:41;16.50;60.20
45537;DHT22;31262;51.978;5.924;2022-11-21T17:55:07;16.70;59.90